This is the latest recevied weather packets stored in our database for station/object KC9DRE. If no packets are shown the sender has not sent any weather packets the latest 10 day(s).
| Time | Temp. | Humidity | Pressure | Rain* | Wind** | Luminosity | Snow |
|---|---|---|---|---|---|---|---|
| 1778339410 | 22.22° C | 56% | 1009.6 hPa | 0 mm | - | 721 W/m² | - |
| 1778339107 | 22.22° C | 56% | 1009.5 hPa | 0 mm | - | 698 W/m² | - |
| 1778338805 | 22.22° C | 54% | 1009.8 hPa | 0 mm | - | 691 W/m² | - |
| 1778338501 | 21.67° C | 59% | 1009.6 hPa | 0 mm | - | 667 W/m² | - |
| 1778338195 | 21.67° C | 55% | 1009.6 hPa | 0 mm | - | 655 W/m² | - |
| 1778337893 | 21.11° C | 60% | 1009.8 hPa | 0 mm | - | 630 W/m² | - |
| 1778337590 | 20.56° C | 57% | 1009.5 hPa | 0 mm | - | 618 W/m² | - |
| 1778337287 | 20.56° C | 60% | 1009.5 hPa | 0 mm | - | 606 W/m² | - |
| 1778336984 | 20.56° C | 59% | 1009.5 hPa | 0 mm | - | 587 W/m² | - |
| 1778336680 | 20.56° C | 59% | 1009.6 hPa | 0 mm | - | 576 W/m² | - |
| 1778336376 | 20° C | 62% | 1009.7 hPa | 0 mm | - | 561 W/m² | - |
| 1778336073 | 19.44° C | 67% | 1009.6 hPa | 0 mm | - | 546 W/m² | - |
| 1778335769 | 20° C | 62% | 1009.5 hPa | 0 mm | - | 527 W/m² | - |
| 1778335466 | 20° C | 62% | 1009.5 hPa | 0 mm | - | 513 W/m² | - |
| 1778335164 | 20° C | 64% | 1009.4 hPa | 0 mm | - | 493 W/m² | - |
| 1778334861 | 20° C | 63% | 1009.3 hPa | 0 mm | - | 478 W/m² | - |
| 1778334559 | 19.44° C | 65% | 1009.4 hPa | 0 mm | - | 467 W/m² | - |
| 1778334256 | 19.44° C | 66% | 1009.4 hPa | 0 mm | - | 452 W/m² | - |
| 1778333953 | 18.89° C | 69% | 1009.5 hPa | 0 mm | - | 437 W/m² | - |
| 1778333649 | 18.33° C | 68% | 1009.2 hPa | 0 mm | - | 382 W/m² | - |
| 1778333348 | 18.33° C | 70% | 1009.2 hPa | 0 mm | - | 401 W/m² | - |
| 1778333046 | 18.33° C | 70% | 1009.5 hPa | 0 mm | - | 383 W/m² | - |
| 1778332743 | 17.78° C | 73% | 1009.2 hPa | 0 mm | - | 365 W/m² | - |
| 1778332439 | 17.22° C | 74% | 1009.3 hPa | 0 mm | - | 351 W/m² | - |
| 1778332136 | 17.78° C | 74% | 1009.3 hPa | 0 mm | - | 334 W/m² | - |
* Rain latest hour (hover to see other rain measurements)
** Current wind speed in m/s (hover to see current wind gust speed)